createdAt,value
2019-01-21T00:02:13.061Z,4.93
2019-01-21T00:04:46.228Z,8.90
2019-01-21T00:07:19.024Z,4.63
2019-01-21T00:09:51.800Z,1.90
2019-01-21T00:12:24.576Z,7.73
2019-01-21T00:14:57.564Z,3.47
2019-01-21T00:17:30.464Z,4.30
2019-01-21T00:20:03.530Z,4.10
2019-01-21T00:22:36.338Z,6.13
2019-01-21T00:25:11.222Z,4.77
2019-01-21T00:27:44.133Z,4.07
2019-01-21T00:30:17.498Z,6.20
2019-01-21T00:32:50.331Z,5.77
2019-01-21T00:35:23.306Z,3.67
2019-01-21T00:37:56.083Z,3.17
2019-01-21T00:40:28.739Z,3.67
2019-01-21T00:43:01.719Z,10.47
2019-01-21T00:45:34.627Z,7.07
2019-01-21T00:48:07.603Z,3.87
2019-01-21T00:50:40.537Z,6.23
2019-01-21T00:53:13.400Z,4.57
2019-01-21T00:55:46.370Z,7.13
2019-01-21T00:58:19.158Z,2.70
2019-01-21T01:00:53.223Z,5.33
2019-01-21T01:03:25.957Z,10.00
2019-01-21T01:06:00.325Z,5.70
2019-01-21T01:08:33.156Z,5.40
2019-01-21T01:11:06.068Z,8.23
2019-01-21T01:13:38.925Z,10.27
2019-01-21T01:16:11.996Z,1.93
2019-01-21T01:18:44.925Z,4.30
2019-01-21T01:21:17.873Z,4.70
2019-01-21T01:23:51.288Z,8.80
2019-01-21T01:26:24.882Z,3.87
2019-01-21T01:28:58.282Z,2.60
2019-01-21T01:31:32.821Z,5.00
2019-01-21T01:34:06.492Z,9.23
2019-01-21T01:36:39.285Z,4.63
2019-01-21T01:39:12.349Z,8.20
2019-01-21T01:41:45.382Z,5.73
2019-01-21T01:44:19.510Z,3.45
2019-01-21T01:46:52.266Z,11.43
2019-01-21T01:49:25.985Z,7.53
2019-01-21T01:51:58.962Z,2.87
2019-01-21T01:54:32.017Z,4.55
2019-01-21T01:57:05.017Z,5.85
2019-01-21T01:59:37.924Z,6.37
2019-01-21T02:02:11.746Z,2.08
2019-01-21T02:04:44.597Z,5.08
2019-01-21T02:07:17.564Z,2.55
2019-01-21T02:09:50.246Z,2.15
2019-01-21T02:12:23.141Z,4.08
2019-01-21T02:14:55.998Z,4.13
2019-01-21T02:17:29.327Z,4.72
2019-01-21T02:20:05.350Z,3.80
2019-01-21T02:22:40.410Z,1.90
2019-01-21T02:25:13.390Z,3.57
2019-01-21T02:28:01.313Z,3.27
2019-01-21T02:30:42.792Z,6.33
2019-01-21T02:33:35.521Z,7.10
2019-01-21T02:36:28.425Z,4.93
2019-01-21T02:39:09.290Z,3.63
2019-01-21T02:41:43.346Z,5.07
2019-01-21T02:44:36.590Z,5.23
2019-01-21T02:47:15.834Z,3.70
2019-01-21T02:50:07.112Z,10.90
2019-01-21T02:52:44.871Z,7.20
2019-01-21T02:55:52.411Z,6.50
2019-01-21T02:58:30.381Z,4.37
2019-01-21T03:01:04.991Z,7.60
2019-01-21T03:03:48.909Z,4.30
2019-01-21T03:06:29.374Z,5.07
2019-01-21T03:09:08.253Z,1.73
2019-01-21T03:12:04.064Z,4.43
2019-01-21T03:14:48.324Z,4.73
2019-01-21T03:17:40.093Z,7.00
2019-01-21T03:20:24.085Z,6.77
2019-01-21T03:23:18.096Z,4.47
2019-01-21T03:26:13.191Z,4.37
2019-01-21T03:28:53.052Z,4.17
2019-01-21T03:31:36.813Z,5.47
2019-01-21T03:34:30.054Z,4.03
2019-01-21T03:37:05.184Z,8.47
2019-01-21T03:39:49.246Z,3.63
2019-01-21T03:42:27.384Z,4.90
2019-01-21T03:45:35.543Z,5.30
2019-01-21T03:48:16.497Z,13.40
2019-01-21T03:50:52.689Z,4.10
2019-01-21T03:53:29.592Z,7.30
2019-01-21T03:56:03.837Z,3.13
2019-01-21T03:58:42.012Z,5.80
2019-01-21T04:01:33.356Z,9.30
2019-01-21T04:04:11.477Z,2.47
2019-01-21T04:06:52.317Z,7.83
2019-01-21T04:09:39.595Z,2.70
2019-01-21T04:12:26.519Z,7.57
2019-01-21T04:15:34.466Z,8.20
2019-01-21T04:18:25.536Z,9.97
2019-01-21T04:21:16.612Z,5.90
2019-01-21T04:24:09.317Z,5.67
2019-01-21T04:26:50.053Z,8.57
2019-01-21T04:29:34.118Z,3.67
2019-01-21T04:32:12.780Z,6.97
2019-01-21T04:34:56.270Z,5.10
2019-01-21T04:37:43.476Z,9.10
2019-01-21T04:40:27.144Z,7.73
2019-01-21T04:43:14.142Z,13.83
2019-01-21T04:45:51.569Z,3.53
2019-01-21T04:48:35.866Z,6.00
2019-01-21T04:51:10.663Z,5.80
2019-01-21T04:54:08.066Z,10.03
2019-01-21T04:57:18.027Z,8.43
2019-01-21T05:00:12.842Z,6.80
2019-01-21T05:03:10.246Z,6.20
2019-01-21T05:05:47.977Z,8.73
2019-01-21T05:08:44.104Z,5.93
2019-01-21T05:11:47.649Z,5.90
2019-01-21T05:14:32.606Z,7.23
2019-01-21T05:17:19.898Z,9.00
2019-01-21T05:20:06.742Z,6.73
2019-01-21T05:23:00.476Z,8.07
2019-01-21T05:25:36.699Z,7.60
2019-01-21T05:28:27.130Z,6.23
2019-01-21T05:31:12.360Z,11.07
2019-01-21T05:33:50.286Z,8.00
2019-01-21T05:36:40.422Z,5.60
2019-01-21T05:39:51.730Z,14.70
2019-01-21T05:42:44.790Z,2.93
2019-01-21T05:45:23.541Z,6.03
2019-01-21T05:48:04.051Z,8.83
2019-01-21T05:50:49.014Z,7.10
2019-01-21T05:53:47.381Z,13.03
2019-01-21T05:56:26.584Z,5.43
2019-01-21T05:59:22.937Z,4.87
2019-01-21T06:02:04.627Z,4.00
2019-01-21T06:07:25.732Z,8.60
2019-01-21T06:10:09.703Z,3.57
2019-01-21T06:12:44.578Z,3.30
2019-01-21T06:15:28.373Z,8.10
2019-01-21T06:18:21.532Z,5.07
2019-01-21T06:21:04.724Z,5.87
2019-01-21T06:23:43.782Z,2.50
2019-01-21T06:26:38.683Z,3.13
2019-01-21T06:29:16.416Z,1.47
2019-01-21T06:32:12.127Z,11.53
2019-01-21T06:34:46.900Z,5.60
2019-01-21T06:37:38.227Z,8.13
2019-01-21T06:40:39.095Z,3.97
2019-01-21T06:43:30.609Z,5.23
2019-01-21T06:46:32.949Z,7.40
2019-01-21T06:49:13.797Z,9.87
2019-01-21T06:52:00.673Z,6.27
2019-01-21T06:54:53.476Z,5.50
2019-01-21T06:57:35.087Z,6.43
2019-01-21T07:00:15.783Z,8.03
2019-01-21T07:03:09.268Z,9.97
2019-01-21T07:05:58.925Z,11.07
2019-01-21T07:08:37.274Z,8.60
2019-01-21T07:11:19.155Z,6.00
2019-01-21T07:14:15.467Z,3.97
2019-01-21T07:16:59.500Z,8.47
2019-01-21T07:19:40.199Z,14.17
2019-01-21T07:22:17.814Z,9.67
2019-01-21T07:25:15.240Z,11.50
2019-01-21T07:27:58.965Z,11.50
2019-01-21T07:30:43.928Z,14.13
2019-01-21T07:33:24.839Z,10.90
2019-01-21T07:36:06.117Z,8.07
2019-01-21T07:38:53.362Z,11.30
2019-01-21T07:41:31.113Z,11.93
2019-01-21T07:44:17.959Z,9.30
2019-01-21T07:47:26.104Z,7.47
2019-01-21T07:50:06.492Z,13.83
2019-01-21T07:52:58.183Z,5.70
2019-01-21T07:55:51.015Z,10.93
2019-01-21T07:58:34.692Z,8.63
2019-01-21T08:01:30.439Z,15.43
2019-01-21T08:04:30.545Z,14.73
2019-01-21T08:07:31.009Z,11.60
2019-01-21T08:10:31.818Z,7.37
2019-01-21T08:13:06.709Z,14.07
2019-01-21T08:15:43.933Z,18.40
2019-01-21T08:18:27.602Z,11.50
2019-01-21T08:21:16.991Z,15.43
2019-01-21T08:24:07.196Z,16.30
2019-01-21T08:26:56.786Z,21.33
2019-01-21T08:29:35.227Z,4.90
2019-01-21T08:32:26.340Z,7.43
2019-01-21T08:35:21.726Z,10.43
2019-01-21T08:38:15.070Z,6.83
2019-01-21T08:40:58.825Z,15.60
2019-01-21T08:43:33.730Z,15.07
2019-01-21T08:46:14.562Z,10.73
2019-01-21T08:49:04.664Z,17.73
2019-01-21T08:51:50.982Z,16.67
2019-01-21T08:54:35.019Z,12.73
2019-01-21T08:57:15.661Z,8.90
2019-01-21T09:00:10.252Z,17.40
2019-01-21T09:02:53.726Z,15.93
2019-01-21T09:05:40.221Z,15.20
2019-01-21T09:08:15.208Z,16.87
2019-01-21T09:10:56.655Z,13.67
2019-01-21T09:14:03.291Z,10.80
2019-01-21T09:16:46.075Z,6.10
2019-01-21T09:19:27.584Z,12.50
2019-01-21T09:22:09.014Z,17.13
2019-01-21T09:24:46.237Z,13.30
2019-01-21T09:27:33.427Z,9.07
2019-01-21T09:30:26.631Z,6.23
2019-01-21T09:33:25.083Z,11.80
2019-01-21T09:36:18.998Z,10.27
2019-01-21T09:38:59.936Z,12.00
2019-01-21T09:41:49.896Z,13.30
2019-01-21T09:44:24.957Z,11.20
2019-01-21T09:46:55.628Z,10.20
2019-01-21T09:49:26.253Z,9.13
2019-01-21T09:52:00.881Z,9.90
2019-01-21T09:54:33.721Z,17.33
2019-01-21T09:57:07.857Z,9.67
2019-01-21T09:59:40.656Z,14.83
2019-01-21T10:02:14.045Z,10.57
2019-01-21T10:04:49.003Z,9.07
2019-01-21T10:07:32.721Z,10.37
2019-01-21T10:10:13.820Z,7.50
2019-01-21T10:13:11.174Z,8.10
2019-01-21T10:15:57.831Z,12.10
2019-01-21T10:18:44.397Z,17.47
2019-01-21T10:21:40.297Z,18.63
2019-01-21T10:24:48.134Z,11.00
2019-01-21T10:27:25.624Z,8.63
2019-01-21T10:30:00.525Z,17.20
2019-01-21T10:32:53.393Z,16.47
2019-01-21T10:35:34.353Z,13.87
2019-01-21T10:38:27.676Z,13.67
2019-01-21T10:41:06.486Z,21.73
2019-01-21T10:44:12.826Z,14.50
2019-01-21T10:46:53.538Z,12.73
2019-01-21T10:49:28.643Z,15.73
2019-01-21T10:52:32.698Z,19.50
2019-01-21T10:55:13.887Z,15.40
2019-01-21T10:58:11.475Z,17.43
2019-01-21T11:00:46.126Z,16.27
2019-01-21T11:03:36.157Z,22.90
2019-01-21T11:06:14.078Z,19.43
2019-01-21T11:09:08.194Z,10.73
2019-01-21T11:11:46.358Z,25.00
2019-01-21T11:14:39.209Z,26.63
2019-01-21T11:17:42.762Z,15.10
2019-01-21T11:20:39.654Z,12.70
2019-01-21T11:23:32.315Z,28.43
2019-01-21T11:26:40.364Z,21.87
2019-01-21T11:29:15.064Z,11.63
2019-01-21T11:31:54.981Z,9.43
2019-01-21T11:34:52.481Z,18.03
2019-01-21T11:37:30.137Z,15.13
2019-01-21T11:40:39.589Z,14.77
2019-01-21T11:43:38.243Z,9.30
2019-01-21T11:46:29.672Z,18.47
2019-01-21T11:49:25.454Z,14.93
2019-01-21T11:52:19.253Z,14.23
2019-01-21T11:55:23.981Z,17.00
2019-01-21T11:58:20.909Z,13.30
2019-01-21T12:01:11.998Z,21.63
2019-01-21T12:04:20.090Z,13.43
2019-01-21T12:06:54.762Z,25.17
2019-01-21T12:09:38.912Z,15.63
2019-01-21T12:12:17.390Z,25.77
2019-01-21T12:14:52.417Z,21.13
2019-01-21T12:17:42.321Z,19.30
2019-01-21T12:20:26.952Z,17.13
2019-01-21T12:23:33.737Z,18.73
2019-01-21T12:26:08.774Z,25.17
2019-01-21T12:28:49.796Z,13.37
2019-01-21T12:31:30.954Z,10.73
2019-01-21T12:34:11.551Z,18.13
2019-01-21T12:36:46.356Z,16.20
2019-01-21T12:39:38.818Z,25.13
2019-01-21T12:42:19.665Z,24.77
2019-01-21T12:44:57.505Z,14.70
2019-01-21T12:47:44.442Z,19.57
2019-01-21T12:50:52.358Z,15.33
2019-01-21T12:53:39.387Z,12.80
2019-01-21T12:56:41.655Z,15.23
2019-01-21T12:59:37.714Z,25.40
2019-01-21T13:02:15.211Z,16.00
2019-01-21T13:05:02.379Z,13.90
2019-01-21T13:07:40.216Z,15.83
2019-01-21T13:10:31.268Z,20.47
2019-01-21T13:13:09.334Z,24.90
2019-01-21T13:15:53.031Z,18.20
2019-01-21T13:18:44.155Z,35.63
2019-01-21T13:21:53.896Z,18.07
2019-01-21T13:24:46.291Z,15.57
2019-01-21T13:27:40.515Z,27.57
2019-01-21T13:30:30.713Z,15.13
2019-01-21T13:33:23.532Z,16.27
2019-01-21T13:35:58.465Z,18.27
2019-01-21T13:38:57.624Z,23.23
2019-01-21T13:41:49.892Z,24.70
2019-01-21T13:44:28.209Z,13.43
2019-01-21T13:47:12.393Z,25.07
2019-01-21T13:50:07.300Z,12.33
2019-01-21T13:52:50.841Z,27.93
2019-01-21T13:55:37.877Z,12.43
2019-01-21T13:58:34.040Z,16.70
2019-01-21T14:01:08.836Z,35.27
2019-01-21T14:03:52.874Z,17.43
2019-01-21T14:06:33.635Z,31.33
2019-01-21T14:09:12.211Z,21.13
2019-01-21T14:12:11.548Z,34.17
2019-01-21T14:14:46.671Z,21.57
2019-01-21T14:17:38.206Z,55.77
2019-01-21T14:20:21.602Z,27.53
2019-01-21T14:23:11.246Z,24.33
2019-01-21T14:25:57.724Z,23.13
2019-01-21T14:28:47.581Z,19.50
2019-01-21T14:31:51.398Z,24.67
2019-01-21T14:34:30.336Z,25.37
2019-01-21T14:37:23.792Z,17.87
2019-01-21T14:39:58.390Z,22.90
2019-01-21T14:42:45.774Z,17.83
2019-01-21T14:45:20.684Z,28.33
2019-01-21T14:48:01.159Z,15.70
2019-01-21T14:50:50.438Z,24.27
2019-01-21T14:53:24.501Z,27.83
2019-01-21T14:56:04.935Z,19.67
2019-01-21T14:58:45.906Z,18.30
2019-01-21T15:01:35.486Z,21.27
2019-01-21T15:04:11.138Z,25.10
2019-01-21T15:06:49.091Z,19.70
2019-01-21T15:09:42.359Z,20.77
2019-01-21T15:12:32.628Z,36.70
2019-01-21T15:15:34.022Z,27.97
2019-01-21T15:18:25.088Z,16.67
2019-01-21T15:21:04.373Z,25.50
2019-01-21T15:23:58.588Z,12.80
2019-01-21T15:26:36.280Z,33.57
2019-01-21T15:29:23.115Z,28.97
2019-01-21T15:32:09.992Z,24.63
2019-01-21T15:34:48.184Z,23.27
2019-01-21T15:37:42.604Z,23.20
2019-01-21T15:40:36.754Z,14.87
2019-01-21T15:43:17.998Z,13.50
2019-01-21T15:46:12.090Z,20.53
2019-01-21T15:48:56.197Z,16.27
2019-01-21T15:51:36.262Z,12.50
2019-01-21T15:54:20.249Z,23.83
2019-01-21T15:57:09.859Z,24.87
2019-01-21T15:59:45.099Z,18.10
2019-01-21T16:02:37.736Z,21.80
2019-01-21T16:05:30.380Z,23.50
2019-01-21T16:08:06.311Z,17.37
2019-01-21T16:10:53.282Z,23.17
2019-01-21T16:13:30.975Z,15.50
2019-01-21T16:16:20.885Z,14.27
2019-01-21T16:19:01.807Z,8.37
2019-01-21T16:21:42.993Z,15.20
2019-01-21T16:24:36.919Z,24.77
2019-01-21T16:27:25.098Z,17.53
2019-01-21T16:29:59.807Z,23.20
2019-01-21T16:32:34.516Z,11.97
2019-01-21T16:35:15.147Z,21.27
2019-01-21T16:37:53.089Z,22.30
2019-01-21T16:40:42.703Z,27.33
2019-01-21T16:43:15.753Z,13.70
2019-01-21T16:45:48.530Z,30.27
2019-01-21T16:48:21.385Z,21.23
2019-01-21T16:50:54.357Z,23.77
2019-01-21T16:53:27.509Z,21.43
2019-01-21T16:56:00.274Z,21.80
2019-01-21T16:58:33.346Z,16.27
2019-01-21T17:01:06.334Z,12.97
2019-01-21T17:03:39.410Z,18.47
2019-01-21T17:06:12.215Z,17.30
2019-01-21T17:08:44.994Z,24.57
2019-01-21T17:11:17.975Z,19.20
2019-01-21T17:14:10.271Z,25.17
2019-01-21T17:16:43.405Z,26.40
2019-01-21T17:19:16.189Z,19.33
2019-01-21T17:21:49.179Z,12.80
2019-01-21T17:24:21.851Z,14.17
2019-01-21T17:26:55.481Z,15.30
2019-01-21T17:29:28.357Z,21.40
2019-01-21T17:32:01.591Z,20.13
2019-01-21T17:34:34.330Z,11.53
2019-01-21T17:37:07.314Z,15.20
2019-01-21T17:39:40.086Z,20.53
2019-01-21T17:42:13.056Z,22.73
2019-01-21T17:44:45.731Z,14.97
2019-01-21T17:47:18.642Z,17.50
2019-01-21T17:49:51.507Z,17.40
2019-01-21T17:52:24.415Z,15.33
2019-01-21T17:54:57.197Z,14.63
2019-01-21T17:57:30.099Z,17.00
2019-01-21T18:00:03.428Z,16.13
2019-01-21T18:02:36.549Z,9.03
2019-01-21T18:05:10.242Z,19.10
2019-01-21T18:07:43.351Z,17.17
2019-01-21T18:10:18.307Z,14.00
2019-01-21T18:12:51.360Z,15.87
2019-01-21T18:15:24.273Z,16.70
2019-01-21T18:17:57.274Z,22.73
2019-01-21T18:20:30.323Z,18.97
2019-01-21T18:23:03.121Z,17.73
2019-01-21T18:25:36.102Z,15.00
2019-01-21T18:28:08.883Z,16.67
2019-01-21T18:30:42.064Z,14.20
2019-01-21T18:33:15.051Z,18.60
2019-01-21T18:35:48.045Z,23.60
2019-01-21T18:38:20.818Z,16.53
2019-01-21T18:40:53.813Z,11.50
2019-01-21T18:43:26.593Z,18.50
2019-01-21T18:45:59.809Z,16.10
2019-01-21T18:48:32.688Z,7.73
2019-01-21T18:51:05.752Z,14.40
2019-01-21T18:53:38.425Z,10.97
2019-01-21T18:56:12.240Z,12.50
2019-01-21T18:58:45.132Z,11.00
2019-01-21T19:01:18.134Z,9.73
2019-01-21T19:03:50.896Z,20.73
2019-01-21T19:06:23.853Z,18.03
2019-01-21T19:08:56.874Z,10.40
2019-01-21T19:11:29.852Z,24.80
2019-01-21T19:14:02.630Z,16.33
2019-01-21T19:16:35.826Z,11.73
2019-01-21T19:19:09.450Z,5.93
2019-01-21T19:21:42.503Z,14.20
2019-01-21T19:24:15.399Z,20.60
2019-01-21T19:26:48.439Z,8.77
2019-01-21T19:29:21.438Z,14.80
2019-01-21T19:31:54.563Z,7.37
2019-01-21T19:34:27.237Z,15.00
2019-01-21T19:37:00.126Z,7.10
2019-01-21T19:39:33.546Z,15.27
2019-01-21T19:42:06.310Z,14.73
2019-01-21T19:44:39.837Z,8.43
2019-01-21T19:47:12.695Z,13.67
2019-01-21T19:49:45.762Z,11.90
2019-01-21T19:52:18.675Z,10.23
2019-01-21T19:54:51.667Z,8.90
2019-01-21T19:57:24.450Z,10.43
2019-01-21T19:59:57.411Z,12.90
2019-01-21T20:02:30.228Z,15.53
2019-01-21T20:05:02.983Z,9.80
2019-01-21T20:07:35.895Z,14.80
2019-01-21T20:10:10.702Z,13.37
2019-01-21T20:12:43.785Z,10.30
2019-01-21T20:15:18.145Z,18.50
2019-01-21T20:17:51.800Z,15.30
2019-01-21T20:20:26.954Z,18.17
2019-01-21T20:23:00.099Z,10.50
2019-01-21T20:25:33.040Z,8.63
2019-01-21T20:28:06.180Z,9.93
2019-01-21T20:30:39.108Z,12.93
2019-01-21T20:33:12.052Z,15.67
2019-01-21T20:35:44.973Z,11.03
2019-01-21T20:38:17.629Z,8.23
2019-01-21T20:40:50.671Z,12.37
2019-01-21T20:43:23.517Z,8.70
2019-01-21T20:45:56.490Z,17.93
2019-01-21T20:48:29.284Z,7.70
2019-01-21T20:51:02.338Z,11.87
2019-01-21T20:53:36.387Z,8.00
2019-01-21T20:56:09.474Z,16.23
2019-01-21T20:58:42.138Z,4.03
2019-01-21T21:01:16.209Z,7.90
2019-01-21T21:03:50.353Z,18.37
2019-01-21T21:06:23.250Z,10.83
2019-01-21T21:08:56.064Z,17.17
2019-01-21T21:11:29.224Z,13.00
2019-01-21T21:14:02.011Z,15.27
2019-01-21T21:16:35.095Z,10.33
2019-01-21T21:19:08.007Z,23.67
2019-01-21T21:21:42.071Z,11.07
2019-01-21T21:24:15.898Z,12.93
2019-01-21T21:26:48.871Z,14.33
2019-01-21T21:29:21.862Z,9.03
2019-01-21T21:31:55.006Z,8.20
2019-01-21T21:34:27.963Z,3.63
2019-01-21T21:37:00.868Z,7.17
2019-01-21T21:39:33.745Z,10.23
2019-01-21T21:42:06.717Z,9.97
2019-01-21T21:44:39.501Z,6.97
2019-01-21T21:47:12.688Z,7.30
2019-01-21T21:49:45.461Z,10.50
2019-01-21T21:52:18.517Z,4.50
2019-01-21T21:54:51.454Z,6.47
2019-01-21T21:57:24.709Z,7.03
2019-01-21T21:59:57.645Z,9.93
2019-01-21T22:02:31.323Z,8.00
2019-01-21T22:05:04.358Z,4.97
2019-01-21T22:07:37.550Z,8.97
2019-01-21T22:10:12.106Z,3.33
2019-01-21T22:12:45.302Z,9.53
2019-01-21T22:15:19.895Z,5.50
2019-01-21T22:17:53.031Z,6.53
2019-01-21T22:20:26.979Z,8.97
2019-01-21T22:23:00.239Z,4.27
2019-01-21T22:25:34.143Z,9.77
2019-01-21T22:28:07.228Z,8.10
2019-01-21T22:30:40.212Z,5.73
2019-01-21T22:33:13.008Z,6.20
2019-01-21T22:35:46.169Z,5.30
2019-01-21T22:38:19.397Z,15.50
2019-01-21T22:40:52.297Z,5.40
2019-01-21T22:43:25.157Z,9.33
2019-01-21T22:45:58.210Z,11.63
2019-01-21T22:48:31.137Z,4.37
2019-01-21T22:51:03.976Z,11.77
2019-01-21T22:53:36.895Z,10.90
2019-01-21T22:56:09.971Z,5.30
2019-01-21T22:58:42.877Z,10.37
2019-01-21T23:01:21.885Z,13.23
2019-01-21T23:03:54.784Z,11.87
2019-01-21T23:06:27.967Z,5.33
2019-01-21T23:09:00.760Z,4.73
2019-01-21T23:11:33.543Z,13.87
2019-01-21T23:14:07.004Z,8.23
2019-01-21T23:16:39.925Z,5.00
2019-01-21T23:19:12.900Z,5.40
2019-01-21T23:21:45.897Z,8.17
2019-01-21T23:24:19.076Z,5.90
2019-01-21T23:26:51.880Z,4.53
2019-01-21T23:29:25.252Z,7.40
2019-01-21T23:31:58.116Z,5.10
2019-01-21T23:34:31.429Z,2.63
2019-01-21T23:37:04.433Z,3.20
2019-01-21T23:39:37.994Z,9.10
2019-01-21T23:42:11.521Z,9.07
2019-01-21T23:44:45.317Z,6.30
2019-01-21T23:47:18.092Z,4.13
2019-01-21T23:49:51.411Z,10.93
2019-01-21T23:52:24.270Z,7.30
2019-01-21T23:54:57.290Z,6.03
2019-01-21T23:57:30.154Z,6.83
